createdAt,value
2022-09-17T00:01:42.764Z,19.83
2022-09-17T00:04:11.321Z,19.82
2022-09-17T00:06:39.531Z,19.82
2022-09-17T00:09:08.850Z,19.72
2022-09-17T00:11:40.596Z,19.74
2022-09-17T00:14:12.852Z,19.67
2022-09-17T00:16:46.812Z,19.64
2022-09-17T00:19:21.209Z,19.61
2022-09-17T00:21:49.713Z,19.50
2022-09-17T00:24:19.264Z,19.38
2022-09-17T00:26:48.701Z,19.35
2022-09-17T00:29:17.235Z,19.37
2022-09-17T00:31:45.398Z,19.32
2022-09-17T00:34:13.566Z,19.30
2022-09-17T00:36:42.161Z,19.10
2022-09-17T00:39:12.389Z,19.09
2022-09-17T00:41:40.562Z,19.00
2022-09-17T00:44:41.656Z,18.94
2022-09-17T00:47:24.095Z,18.98
2022-09-17T00:50:09.509Z,18.89
2022-09-17T00:52:49.625Z,18.89
2022-09-17T00:55:22.611Z,18.85
2022-09-17T00:57:58.920Z,18.79
2022-09-17T01:00:27.633Z,18.74
2022-09-17T01:02:55.645Z,18.75
2022-09-17T01:05:48.626Z,18.81
2022-09-17T01:08:32.126Z,18.65
2022-09-17T01:11:20.876Z,18.50
2022-09-17T01:14:07.808Z,18.35
2022-09-17T01:16:40.415Z,18.27
2022-09-17T01:19:27.973Z,18.14
2022-09-17T01:22:11.264Z,18.06
2022-09-17T01:25:04.210Z,18.03
2022-09-17T01:27:47.077Z,18.08
2022-09-17T01:30:36.498Z,17.99
2022-09-17T01:33:31.015Z,18.00
2022-09-17T01:36:35.634Z,18.04
2022-09-17T01:39:42.039Z,18.00
2022-09-17T01:42:36.238Z,17.98
2022-09-17T01:45:18.971Z,17.89
2022-09-17T01:48:15.347Z,17.90
2022-09-17T01:51:12.967Z,17.86
2022-09-17T01:53:53.365Z,17.87
2022-09-17T01:56:26.557Z,17.81
2022-09-17T01:59:07.392Z,17.78
2022-09-17T02:01:39.281Z,17.77
2022-09-17T02:04:14.825Z,17.78
2022-09-17T02:06:48.819Z,17.75
2022-09-17T02:09:36.882Z,17.75
2022-09-17T02:12:18.133Z,17.77
2022-09-17T02:14:54.006Z,17.74
2022-09-17T02:17:32.248Z,17.69
2022-09-17T02:20:02.292Z,17.68
2022-09-17T02:22:37.189Z,17.67
2022-09-17T02:25:11.034Z,17.60
2022-09-17T02:28:03.270Z,17.65
2022-09-17T02:30:32.515Z,17.74
2022-09-17T02:33:04.875Z,17.76
2022-09-17T02:35:33.356Z,17.83
2022-09-17T02:38:01.558Z,17.77
2022-09-17T02:40:35.235Z,17.75
2022-09-17T02:43:38.050Z,17.75
2022-09-17T02:46:44.840Z,17.78
2022-09-17T02:49:24.483Z,17.83
2022-09-17T02:51:55.372Z,17.85
2022-09-17T02:54:42.937Z,17.87
2022-09-17T02:57:30.270Z,17.93
2022-09-17T03:00:12.380Z,17.91
2022-09-17T03:02:45.271Z,17.99
2022-09-17T03:05:16.922Z,18.02
2022-09-17T03:07:45.161Z,18.00
2022-09-17T03:10:13.592Z,17.97
2022-09-17T03:12:42.032Z,18.01
2022-09-17T03:15:10.440Z,18.00
2022-09-17T03:17:38.815Z,17.97
2022-09-17T03:20:07.554Z,17.92
2022-09-17T03:22:35.909Z,17.97
2022-09-17T03:25:04.312Z,17.92
2022-09-17T03:27:32.412Z,17.87
2022-09-17T03:30:00.516Z,17.90
2022-09-17T03:32:28.611Z,17.87
2022-09-17T03:34:56.674Z,17.89
2022-09-17T03:37:24.774Z,17.92
2022-09-17T03:39:52.931Z,17.93
2022-09-17T03:42:21.011Z,17.92
2022-09-17T03:44:49.135Z,17.92
2022-09-17T03:47:17.442Z,17.88
2022-09-17T03:49:46.699Z,17.94
2022-09-17T03:52:14.821Z,17.91
2022-09-17T03:54:42.906Z,17.94
2022-09-17T03:57:10.988Z,17.93
2022-09-17T03:59:39.163Z,17.91
2022-09-17T04:02:07.319Z,17.97
2022-09-17T04:04:36.269Z,17.94
2022-09-17T04:07:04.588Z,17.94
2022-09-17T04:09:33.429Z,17.76
2022-09-17T04:12:03.705Z,17.51
2022-09-17T04:14:32.914Z,17.30
2022-09-17T04:17:01.032Z,17.12
2022-09-17T04:19:29.134Z,17.04
2022-09-17T04:21:57.148Z,16.74
2022-09-17T04:24:25.326Z,16.64
2022-09-17T04:26:53.404Z,16.57
2022-09-17T04:29:21.505Z,16.49
2022-09-17T04:31:49.563Z,16.42
2022-09-17T04:34:17.685Z,16.38
2022-09-17T04:36:45.743Z,16.39
2022-09-17T04:39:13.939Z,16.40
2022-09-17T04:41:41.970Z,16.34
2022-09-17T04:44:10.072Z,16.38
2022-09-17T04:46:38.134Z,16.30
2022-09-17T04:49:06.380Z,16.25
2022-09-17T04:51:34.704Z,16.28
2022-09-17T04:54:02.930Z,16.28
2022-09-17T04:56:31.038Z,16.22
2022-09-17T04:58:59.174Z,16.14
2022-09-17T05:01:27.398Z,15.99
2022-09-17T05:03:55.600Z,15.92
2022-09-17T05:06:24.445Z,15.96
2022-09-17T05:08:52.708Z,15.89
2022-09-17T05:11:20.783Z,15.93
2022-09-17T05:13:49.543Z,15.77
2022-09-17T05:16:17.745Z,15.80
2022-09-17T05:18:46.187Z,15.79
2022-09-17T05:21:14.247Z,15.66
2022-09-17T05:23:42.241Z,15.55
2022-09-17T05:26:10.463Z,15.53
2022-09-17T05:28:38.674Z,15.44
2022-09-17T05:31:06.873Z,15.43
2022-09-17T05:33:34.995Z,15.54
2022-09-17T05:36:03.321Z,15.46
2022-09-17T05:38:31.540Z,15.35
2022-09-17T05:41:03.334Z,15.33
2022-09-17T05:43:31.632Z,15.45
2022-09-17T05:46:05.006Z,15.57
2022-09-17T05:48:33.225Z,15.56
2022-09-17T05:51:01.273Z,15.47
2022-09-17T05:53:29.347Z,15.43
2022-09-17T05:56:03.230Z,15.26
2022-09-17T05:58:34.412Z,15.35
2022-09-17T06:01:02.793Z,15.44
2022-09-17T06:03:30.872Z,15.62
2022-09-17T06:06:00.188Z,15.62
2022-09-17T06:08:29.429Z,15.53
2022-09-17T06:11:01.712Z,15.40
2022-09-17T06:13:31.044Z,15.23
2022-09-17T06:15:59.775Z,15.11
2022-09-17T06:18:29.583Z,15.12
2022-09-17T06:21:00.147Z,15.38
2022-09-17T06:23:28.877Z,15.49
2022-09-17T06:26:02.844Z,15.41
2022-09-17T06:28:31.026Z,15.31
2022-09-17T06:31:04.082Z,15.28
2022-09-17T06:33:33.495Z,15.13
2022-09-17T06:36:05.376Z,14.97
2022-09-17T06:38:36.708Z,15.06
2022-09-17T06:41:05.234Z,15.04
2022-09-17T06:43:33.870Z,15.01
2022-09-17T06:46:06.006Z,14.63
2022-09-17T06:48:35.586Z,14.45
2022-09-17T06:51:06.383Z,14.32
2022-09-17T06:53:37.195Z,14.20
2022-09-17T06:56:06.818Z,13.96
2022-09-17T06:58:41.965Z,13.65
2022-09-17T07:01:11.649Z,13.38
2022-09-17T07:03:42.870Z,13.46
2022-09-17T07:06:11.581Z,13.43
2022-09-17T07:08:41.592Z,13.50
2022-09-17T07:11:09.799Z,13.47
2022-09-17T07:13:37.950Z,13.57
2022-09-17T07:16:06.902Z,13.67
2022-09-17T07:18:35.305Z,13.72
2022-09-17T07:21:05.671Z,13.73
2022-09-17T07:23:36.029Z,13.66
2022-09-17T07:26:07.088Z,13.64
2022-09-17T07:28:35.302Z,13.57
2022-09-17T07:31:05.534Z,13.57
2022-09-17T07:33:35.759Z,13.38
2022-09-17T07:36:07.445Z,13.42
2022-09-17T07:38:35.831Z,13.27
2022-09-17T07:41:12.916Z,13.18
2022-09-17T07:43:42.253Z,13.00
2022-09-17T07:46:18.797Z,13.02
2022-09-17T07:48:47.851Z,12.87
2022-09-17T07:51:22.003Z,12.83
2022-09-17T07:53:58.070Z,12.93
2022-09-17T07:56:27.555Z,13.04
2022-09-17T07:58:56.314Z,13.04
2022-09-17T08:01:24.576Z,12.92
2022-09-17T08:03:54.335Z,12.99
2022-09-17T08:06:26.254Z,12.96
2022-09-17T08:08:55.765Z,12.83
2022-09-17T08:14:15.883Z,12.86
2022-09-17T08:16:46.437Z,13.13
2022-09-17T08:19:14.606Z,13.12
2022-09-17T08:21:42.719Z,13.16
2022-09-17T08:24:10.821Z,13.24
2022-09-17T08:26:39.815Z,13.28
2022-09-17T08:29:08.084Z,13.52
2022-09-17T08:31:36.191Z,13.59
2022-09-17T08:34:09.818Z,13.85
2022-09-17T08:36:38.242Z,14.22
2022-09-17T08:39:06.359Z,14.42
2022-09-17T08:41:57.337Z,14.50
2022-09-17T08:44:30.653Z,14.54
2022-09-17T08:47:31.091Z,14.60
2022-09-17T08:50:06.157Z,14.41
2022-09-17T08:53:06.466Z,14.52
2022-09-17T08:55:40.298Z,14.65
2022-09-17T08:58:34.043Z,14.64
2022-09-17T09:01:08.629Z,14.67
2022-09-17T09:04:06.931Z,14.57
2022-09-17T09:06:46.387Z,14.66
2022-09-17T09:09:21.154Z,14.66
2022-09-17T09:11:54.247Z,14.74
2022-09-17T09:14:31.219Z,14.56
2022-09-17T09:17:00.244Z,14.63
2022-09-17T09:19:34.013Z,14.53
2022-09-17T09:22:20.812Z,14.63
2022-09-17T09:25:19.000Z,14.85
2022-09-17T09:28:06.057Z,14.85
2022-09-17T09:30:59.535Z,15.09
2022-09-17T09:33:32.306Z,15.07
2022-09-17T09:36:00.910Z,15.28
2022-09-17T09:38:38.111Z,15.33
2022-09-17T09:41:15.599Z,15.37
2022-09-17T09:44:14.233Z,15.49
2022-09-17T09:47:00.695Z,15.51
2022-09-17T09:49:41.527Z,15.53
2022-09-17T09:52:35.892Z,15.57
2022-09-17T09:55:30.725Z,15.76
2022-09-17T09:58:27.579Z,15.98
2022-09-17T10:00:55.629Z,16.18
2022-09-17T10:03:32.167Z,16.29
2022-09-17T10:06:04.955Z,16.32
2022-09-17T10:08:36.724Z,16.27
2022-09-17T10:11:06.203Z,16.32
2022-09-17T10:13:36.895Z,16.38
2022-09-17T10:16:21.242Z,16.49
2022-09-17T10:19:05.819Z,16.70
2022-09-17T10:21:42.482Z,16.93
2022-09-17T10:24:27.993Z,17.15
2022-09-17T10:27:13.534Z,17.14
2022-09-17T10:29:47.380Z,17.22
2022-09-17T10:32:23.269Z,17.01
2022-09-17T10:35:19.403Z,16.87
2022-09-17T10:37:48.794Z,16.92
2022-09-17T10:40:19.759Z,16.91
2022-09-17T10:42:49.525Z,16.90
2022-09-17T10:45:29.270Z,17.01
2022-09-17T10:47:59.848Z,17.16
2022-09-17T10:50:34.527Z,17.19
2022-09-17T10:53:06.167Z,17.35
2022-09-17T10:55:34.258Z,17.28
2022-09-17T10:58:08.537Z,17.36
2022-09-17T11:00:57.850Z,17.61
2022-09-17T11:03:44.860Z,17.83
2022-09-17T11:06:25.312Z,17.62
2022-09-17T11:09:02.278Z,17.31
2022-09-17T11:11:39.071Z,17.41
2022-09-17T11:14:35.904Z,17.58
2022-09-17T11:17:11.840Z,17.70
2022-09-17T11:20:01.464Z,18.30
2022-09-17T11:22:45.897Z,18.65
2022-09-17T11:25:43.237Z,18.50
2022-09-17T11:28:32.311Z,18.22
2022-09-17T11:31:34.587Z,18.15
2022-09-17T11:34:14.418Z,18.49
2022-09-17T11:37:16.695Z,18.93
2022-09-17T11:40:17.973Z,18.54
2022-09-17T11:42:53.388Z,18.62
2022-09-17T11:45:29.086Z,18.46
2022-09-17T11:48:07.994Z,18.32
2022-09-17T11:51:00.939Z,18.95
2022-09-17T11:53:35.230Z,19.05
2022-09-17T11:56:25.574Z,19.26
2022-09-17T11:59:05.875Z,19.96
2022-09-17T12:01:58.020Z,19.90
2022-09-17T12:04:46.439Z,20.45
2022-09-17T12:07:21.505Z,20.63
2022-09-17T12:09:59.803Z,20.05
2022-09-17T12:12:49.216Z,19.67
2022-09-17T12:15:28.915Z,19.40
2022-09-17T12:18:30.547Z,19.06
2022-09-17T12:20:57.156Z,18.71
2022-09-17T12:23:43.606Z,18.86
2022-09-17T12:26:24.519Z,19.68
2022-09-17T12:29:05.721Z,20.03
2022-09-17T12:32:18.321Z,20.76
2022-09-17T12:34:58.288Z,20.43
2022-09-17T12:37:52.808Z,19.96
2022-09-17T12:40:31.517Z,19.56
2022-09-17T12:43:50.569Z,19.67
2022-09-17T12:46:40.459Z,19.56
2022-09-17T12:49:19.080Z,19.43
2022-09-17T12:51:53.072Z,19.77
2022-09-17T12:54:45.937Z,20.55
2022-09-17T12:57:42.581Z,21.22
2022-09-17T13:00:13.467Z,20.86
2022-09-17T13:03:27.154Z,20.48
2022-09-17T13:06:27.466Z,20.03
2022-09-17T13:09:13.927Z,20.33
2022-09-17T13:12:01.915Z,21.37
2022-09-17T13:14:58.172Z,21.17
2022-09-17T13:17:35.989Z,21.60
2022-09-17T13:23:02.047Z,21.55
2022-09-17T13:25:30.754Z,21.15
2022-09-17T13:28:12.069Z,21.57
2022-09-17T13:31:01.796Z,21.55
2022-09-17T13:33:53.889Z,21.15
2022-09-17T13:36:49.033Z,21.21
2022-09-17T13:39:41.957Z,22.28
2022-09-17T13:42:14.465Z,23.09
2022-09-17T13:44:51.385Z,22.74
2022-09-17T13:47:25.166Z,23.20
2022-09-17T13:50:02.457Z,23.08
2022-09-17T13:52:52.150Z,22.75
2022-09-17T13:55:37.242Z,22.44
2022-09-17T13:58:13.407Z,22.82
2022-09-17T14:00:58.016Z,22.32
2022-09-17T14:03:34.988Z,21.91
2022-09-17T14:06:08.670Z,21.69
2022-09-17T14:08:46.596Z,22.19
2022-09-17T14:11:25.804Z,21.87
2022-09-17T14:13:59.724Z,21.27
2022-09-17T14:16:36.979Z,21.08
2022-09-17T14:19:23.803Z,20.73
2022-09-17T14:22:05.858Z,20.01
2022-09-17T14:24:44.183Z,19.69
2022-09-17T14:27:43.580Z,20.00
2022-09-17T14:30:14.463Z,19.70
2022-09-17T14:32:51.952Z,19.75
2022-09-17T14:35:26.213Z,19.63
2022-09-17T14:38:26.038Z,19.25
2022-09-17T14:41:06.377Z,19.08
2022-09-17T14:44:17.316Z,18.91
2022-09-17T14:47:13.308Z,19.00
2022-09-17T14:49:41.604Z,19.06
2022-09-17T14:52:38.870Z,18.87
2022-09-17T14:55:29.691Z,18.86
2022-09-17T14:58:02.634Z,18.87
2022-09-17T15:00:38.298Z,18.90
2022-09-17T15:03:06.869Z,18.89
2022-09-17T15:05:40.692Z,18.85
2022-09-17T15:08:39.891Z,18.90
2022-09-17T15:11:11.980Z,18.81
2022-09-17T15:13:50.397Z,18.72
2022-09-17T15:16:25.746Z,18.70
2022-09-17T15:19:03.557Z,18.71
2022-09-17T15:21:46.135Z,18.72
2022-09-17T15:24:23.164Z,18.65
2022-09-17T15:26:56.225Z,18.55
2022-09-17T15:29:31.027Z,18.55
2022-09-17T15:31:59.323Z,18.68
2022-09-17T15:34:27.435Z,18.54
2022-09-17T15:37:28.316Z,18.46
2022-09-17T15:39:56.691Z,18.17
2022-09-17T15:42:32.119Z,18.17
2022-09-17T15:45:18.517Z,17.93
2022-09-17T15:47:53.984Z,17.94
2022-09-17T15:50:25.024Z,17.91
2022-09-17T15:53:22.241Z,17.92
2022-09-17T15:56:02.876Z,17.86
2022-09-17T15:58:35.597Z,17.94
2022-09-17T16:01:09.944Z,17.97
2022-09-17T16:03:40.885Z,17.97
2022-09-17T16:06:21.218Z,18.00
2022-09-17T16:09:03.633Z,17.98
2022-09-17T16:11:33.040Z,18.03
2022-09-17T16:14:01.675Z,18.11
2022-09-17T16:16:35.412Z,18.13
2022-09-17T16:19:06.898Z,18.14
2022-09-17T16:21:35.896Z,18.13
2022-09-17T16:24:04.100Z,18.11
2022-09-17T16:26:35.152Z,18.02
2022-09-17T16:29:05.797Z,17.94
2022-09-17T16:31:34.608Z,17.88
2022-09-17T16:34:02.718Z,17.74
2022-09-17T16:36:32.248Z,17.70
2022-09-17T16:39:01.183Z,17.68
2022-09-17T16:41:29.319Z,17.64
2022-09-17T16:43:58.399Z,17.55
2022-09-17T16:46:26.852Z,17.45
2022-09-17T16:48:55.025Z,17.37
2022-09-17T16:51:23.087Z,17.32
2022-09-17T16:53:51.212Z,17.21
2022-09-17T16:56:28.040Z,17.10
2022-09-17T16:58:56.801Z,17.06
2022-09-17T17:01:25.060Z,17.05
2022-09-17T17:03:54.172Z,17.09
2022-09-17T17:06:22.716Z,17.11
2022-09-17T17:08:51.766Z,17.12
2022-09-17T17:11:19.838Z,17.10
2022-09-17T17:13:48.145Z,17.13
2022-09-17T17:16:16.606Z,17.05
2022-09-17T17:18:47.614Z,16.96
2022-09-17T17:21:15.708Z,16.80
2022-09-17T17:23:43.898Z,16.70
2022-09-17T17:26:12.038Z,16.59
2022-09-17T17:28:40.162Z,16.58
2022-09-17T17:31:08.369Z,16.51
2022-09-17T17:33:36.569Z,16.35
2022-09-17T17:36:08.268Z,16.22
2022-09-17T17:38:37.429Z,16.13
2022-09-17T17:41:15.773Z,15.97
2022-09-17T17:43:43.926Z,15.84
2022-09-17T17:46:12.865Z,15.83
2022-09-17T17:48:40.983Z,15.74
2022-09-17T17:51:10.749Z,15.63
2022-09-17T17:53:42.683Z,15.62
2022-09-17T17:56:12.600Z,15.49
2022-09-17T17:58:40.903Z,15.43
2022-09-17T18:01:18.445Z,15.40
2022-09-17T18:03:46.933Z,15.35
2022-09-17T18:06:15.094Z,15.33
2022-09-17T18:08:45.291Z,15.30
2022-09-17T18:11:13.434Z,15.30
2022-09-17T18:13:44.982Z,15.35
2022-09-17T18:16:15.060Z,15.30
2022-09-17T18:18:45.410Z,15.24
2022-09-17T18:21:16.965Z,15.20
2022-09-17T18:23:45.431Z,15.20
2022-09-17T18:26:16.751Z,15.11
2022-09-17T18:28:45.379Z,15.04
2022-09-17T18:31:22.897Z,14.99
2022-09-17T18:34:02.456Z,14.97
2022-09-17T18:36:32.901Z,14.97
2022-09-17T18:39:24.227Z,14.92
2022-09-17T18:41:52.845Z,14.88
2022-09-17T18:44:21.955Z,14.87
2022-09-17T18:46:51.462Z,14.84
2022-09-17T18:49:19.754Z,14.79
2022-09-17T18:51:47.888Z,14.77
2022-09-17T18:54:16.058Z,14.72
2022-09-17T18:56:44.322Z,14.67
2022-09-17T18:59:13.523Z,14.58
2022-09-17T19:01:41.820Z,14.55
2022-09-17T19:04:11.251Z,14.50
2022-09-17T19:06:39.527Z,14.46
2022-09-17T19:09:07.615Z,14.45
2022-09-17T19:11:36.571Z,14.42
2022-09-17T19:14:04.962Z,14.36
2022-09-17T19:16:33.158Z,14.31
2022-09-17T19:19:01.459Z,14.33
2022-09-17T19:21:29.697Z,14.29
2022-09-17T19:23:58.011Z,14.26
2022-09-17T19:26:27.613Z,14.20
2022-09-17T19:29:03.175Z,14.18
2022-09-17T19:31:31.338Z,14.14
2022-09-17T19:33:59.995Z,14.10
2022-09-17T19:36:30.431Z,14.10
2022-09-17T19:38:58.878Z,14.15
2022-09-17T19:41:27.185Z,14.11
2022-09-17T19:43:56.851Z,14.08
2022-09-17T19:46:26.456Z,14.00
2022-09-17T19:48:58.769Z,13.97
2022-09-17T19:51:29.668Z,13.86
2022-09-17T19:53:58.182Z,13.87
2022-09-17T19:56:27.623Z,13.89
2022-09-17T19:58:56.713Z,13.86
2022-09-17T20:01:24.941Z,13.78
2022-09-17T20:03:55.899Z,13.82
2022-09-17T20:06:24.164Z,13.80
2022-09-17T20:08:54.430Z,13.77
2022-09-17T20:11:24.196Z,13.75
2022-09-17T20:13:58.454Z,13.73
2022-09-17T20:16:26.970Z,13.73
2022-09-17T20:18:55.367Z,13.65
2022-09-17T20:21:29.367Z,13.60
2022-09-17T20:23:58.635Z,13.59
2022-09-17T20:26:28.901Z,13.63
2022-09-17T20:28:57.329Z,13.58
2022-09-17T20:31:28.252Z,13.63
2022-09-17T20:33:58.880Z,13.67
2022-09-17T20:36:33.347Z,13.62
2022-09-17T20:39:22.261Z,13.65
2022-09-17T20:41:49.772Z,13.61
2022-09-17T20:44:18.308Z,13.53
2022-09-17T20:46:46.704Z,13.44
2022-09-17T20:49:14.977Z,13.25
2022-09-17T20:51:43.101Z,13.13
2022-09-17T20:54:11.344Z,13.02
2022-09-17T20:56:39.484Z,13.00
2022-09-17T20:59:24.892Z,13.01
2022-09-17T21:01:53.738Z,12.98
2022-09-17T21:04:24.074Z,12.97
2022-09-17T21:06:53.410Z,12.97
2022-09-17T21:09:24.364Z,13.03
2022-09-17T21:11:52.609Z,13.01
2022-09-17T21:14:21.120Z,12.92
2022-09-17T21:16:49.316Z,12.94
2022-09-17T21:19:17.432Z,12.98
2022-09-17T21:21:45.585Z,13.03
2022-09-17T21:24:13.765Z,13.14
2022-09-17T21:26:41.980Z,13.16
2022-09-17T21:29:10.479Z,13.16
2022-09-17T21:31:41.575Z,13.11
2022-09-17T21:34:12.474Z,13.04
2022-09-17T21:36:41.855Z,12.96
2022-09-17T21:39:15.675Z,12.90
2022-09-17T21:41:45.336Z,12.79
2022-09-17T21:44:13.873Z,12.74
2022-09-17T21:46:43.180Z,12.73
2022-09-17T21:49:13.027Z,12.71
2022-09-17T21:51:42.786Z,12.70
2022-09-17T21:54:13.739Z,12.68
2022-09-17T21:56:41.908Z,12.70
2022-09-17T21:59:12.083Z,12.85
2022-09-17T22:01:43.908Z,12.90
2022-09-17T22:04:15.288Z,12.76
2022-09-17T22:06:44.366Z,12.70
2022-09-17T22:09:22.146Z,12.64
2022-09-17T22:11:51.464Z,12.67
2022-09-17T22:14:24.777Z,12.62
2022-09-17T22:16:54.537Z,12.65
2022-09-17T22:19:23.766Z,12.74
2022-09-17T22:21:54.042Z,12.74
2022-09-17T22:24:24.080Z,12.78
2022-09-17T22:26:57.843Z,12.93
2022-09-17T22:29:31.800Z,12.78
2022-09-17T22:32:00.007Z,12.63
2022-09-17T22:34:29.669Z,12.50
2022-09-17T22:36:57.789Z,12.51
2022-09-17T22:39:25.925Z,12.39
2022-09-17T22:41:54.662Z,12.05
2022-09-17T22:44:22.725Z,11.92
2022-09-17T22:46:52.079Z,11.93
2022-09-17T22:49:20.436Z,12.07
2022-09-17T22:51:48.578Z,12.07
2022-09-17T22:54:18.277Z,12.01
2022-09-17T22:56:47.679Z,12.05
2022-09-17T22:59:17.710Z,11.95
2022-09-17T23:01:45.916Z,11.93
2022-09-17T23:04:14.159Z,11.92
2022-09-17T23:06:42.347Z,11.90
2022-09-17T23:09:13.707Z,11.94
2022-09-17T23:11:42.172Z,11.91
2022-09-17T23:14:15.359Z,11.89
2022-09-17T23:16:48.864Z,12.01
2022-09-17T23:19:17.868Z,12.04
2022-09-17T23:21:46.572Z,12.02
2022-09-17T23:24:20.279Z,11.93
2022-09-17T23:26:49.736Z,11.89
2022-09-17T23:29:19.068Z,11.70
2022-09-17T23:31:47.222Z,11.64
2022-09-17T23:34:15.293Z,11.62
2022-09-17T23:36:43.909Z,11.57
2022-09-17T23:39:12.409Z,11.43
2022-09-17T23:41:43.240Z,11.44
2022-09-17T23:44:15.313Z,11.42
2022-09-17T23:46:45.668Z,11.54
2022-09-17T23:49:14.960Z,11.53
2022-09-17T23:51:43.546Z,11.47
2022-09-17T23:54:11.816Z,11.37
2022-09-17T23:56:39.926Z,11.29
2022-09-17T23:59:08.521Z,11.27
